Weather History for KAUM - August, 2013

Change the Weather History Date:

Wednesday, August 7, 2013

  Actual Average Record
Temperature  
Mean Temperature 65 °F -  
Max Temperature 73 °F 75 °F 91 °F (2001)
Min Temperature 57 °F 57 °F 53 °F (1997)
Growing Degree Days 15 (Base 50)    
Moisture  
Dew Point 55 °F    
Average Humidity 71    
Maximum Humidity 88    
Minimum Humidity 43    
Precipitation  
Precipitation 0.00 in - - ()
Sea Level Pressure  
Sea Level Pressure 29.94 in    
Wind  
Wind Speed 5 mph (NNW)    
Max Wind Speed 13 mph    
Max Gust Speed 18 mph    
Visibility 9 miles    
Events      
Averages and records for this station are not official NWS values.
T = Trace of Precipitation, MM = Missing Value Source: NWS Daily Summary

Daily Weather History Graph

Daily Weather History Graph

Search for Another Location

Airport or City:

Trip Planner

Search our weather history database for the weather conditions in past years. The results will help you decide how hot, cold, wet, or windy it might be!

Date:

Astronomy

Aug. 07, 2013 Rise Set
Actual Time 6:07 AM CDT 8:26 PM CDT
Civil Twilight 5:35 AM CDT 8:58 PM CDT
Nautical Twilight 4:56 AM CDT 9:37 PM CDT
Astronomical Twilight 4:11 AM CDT 10:21 PM CDT
Moon 7:00 AM CDT (8/7) 8:29 PM CDT (8/7)
Length of Visible Light 15h 22m
Length of Day
14h 18m
New Moon, 1% of the Moon is Illuminated
Aug 7
New Moon
Aug 14
First Quarter
Aug 20
Full
Aug 28
Last Quarter
Sep 5
New

Hourly Weather History & Observations

Time (CDT) Temp. Dew Point Humidity Pressure Visibility Wind Dir Wind Speed Gust Speed Precip Events Conditions
12:17 AM 69.8 °F 60.8 °F 73% 29.82 in 10.0 mi Calm Calm - N/A   Scattered Clouds
12:36 AM 68.0 °F 60.8 °F 78% 29.82 in 10.0 mi Calm Calm - N/A   Scattered Clouds
12:56 AM 66.2 °F 60.8 °F 83% 29.83 in 10.0 mi Calm Calm - N/A   Clear
1:16 AM 66.2 °F 60.8 °F 83% 29.82 in 7.0 mi Calm Calm - N/A   Clear
1:36 AM 64.4 °F 60.8 °F 88% 29.82 in 10.0 mi Calm Calm - N/A   Clear
1:56 AM 64.4 °F 60.8 °F 88% 29.82 in 10.0 mi Calm Calm - N/A   Clear
2:16 AM 66.2 °F 60.8 °F 83% 29.83 in 10.0 mi NW 6.9 mph - N/A   Clear
2:36 AM 64.4 °F 59.0 °F 83% 29.83 in 10.0 mi NW 5.8 mph - N/A   Clear
2:56 AM 64.4 °F 57.2 °F 77% 29.83 in 10.0 mi NW 6.9 mph - N/A   Clear
3:16 AM 64.4 °F 57.2 °F 77% 29.83 in 10.0 mi NW 8.1 mph - N/A   Clear
3:36 AM 62.6 °F 55.4 °F 77% 29.83 in 10.0 mi NW 5.8 mph - N/A   Clear
3:57 AM 62.6 °F 55.4 °F 77% 29.84 in 10.0 mi NW 6.9 mph - N/A   Clear
4:16 AM 62.6 °F 55.4 °F 77% 29.83 in 10.0 mi NW 4.6 mph - N/A   Clear
4:37 AM 60.8 °F 55.4 °F 82% 29.84 in 10.0 mi Calm Calm - N/A   Clear
4:56 AM 60.8 °F 55.4 °F 82% 29.84 in 10.0 mi WNW 4.6 mph - N/A   Clear
5:16 AM 60.8 °F 55.4 °F 82% 29.84 in 10.0 mi NW 6.9 mph - N/A   Clear
5:36 AM 60.8 °F 55.4 °F 82% 29.85 in 10.0 mi NW 6.9 mph - N/A   Clear
5:56 AM 60.8 °F 57.2 °F 88% 29.86 in 10.0 mi NW 9.2 mph - N/A   Scattered Clouds
6:16 AM 60.8 °F 57.2 °F 88% 29.87 in 4.0 mi NNW 9.2 mph - N/A   Overcast
6:36 AM 60.8 °F 57.2 °F 88% 29.87 in 5.0 mi NNW 10.4 mph - N/A   Overcast
6:56 AM 60.8 °F 57.2 °F 88% 29.87 in 2.5 mi North 8.1 mph - N/A   Overcast
7:16 AM 60.8 °F 57.2 °F 88% 29.87 in 4.0 mi NNW 12.7 mph - N/A   Overcast
7:36 AM 60.8 °F 57.2 °F 88% 29.89 in 4.0 mi NNW 6.9 mph - N/A   Overcast
7:56 AM 60.8 °F 57.2 °F 88% 29.89 in 4.0 mi NNW 10.4 mph - N/A   Overcast
8:16 AM 60.8 °F 57.2 °F 88% 29.90 in 7.0 mi NNW 9.2 mph 17.3 mph N/A   Overcast
8:36 AM 60.8 °F 57.2 °F 88% 29.91 in 7.0 mi North 9.2 mph - N/A   Overcast
8:56 AM 60.8 °F 57.2 °F 88% 29.92 in 4.0 mi NNW 9.2 mph - N/A   Overcast
9:16 AM 62.6 °F 57.2 °F 82% 29.93 in 5.0 mi NNW 10.4 mph - N/A   Overcast
9:36 AM 62.6 °F 57.2 °F 82% 29.94 in 7.0 mi NNW 9.2 mph - N/A   Overcast
9:56 AM 62.6 °F 57.2 °F 82% 29.94 in 10.0 mi NNW 5.8 mph - N/A   Overcast
10:16 AM 64.4 °F 57.2 °F 77% 29.95 in 10.0 mi North 6.9 mph - N/A   Overcast
10:36 AM 64.4 °F 57.2 °F 77% 29.96 in 10.0 mi NNW 10.4 mph - N/A   Overcast
10:56 AM 66.2 °F 55.4 °F 68% 29.97 in 10.0 mi North 8.1 mph - N/A   Overcast
11:17 AM 66.2 °F 57.2 °F 73% 29.98 in 10.0 mi NNW 8.1 mph - N/A   Overcast
11:36 AM 66.2 °F 57.2 °F 73% 29.99 in 10.0 mi NNW 9.2 mph - N/A   Overcast
11:56 AM 68.0 °F 57.2 °F 68% 29.99 in 10.0 mi North 9.2 mph - N/A   Mostly Cloudy
12:17 PM 69.8 °F 57.2 °F 64% 29.99 in 10.0 mi NNW 12.7 mph 16.1 mph N/A   Mostly Cloudy
12:36 PM 69.8 °F 57.2 °F 64% 29.98 in 10.0 mi NNW 10.4 mph - N/A   Scattered Clouds
12:56 PM 69.8 °F 55.4 °F 60% 29.99 in 10.0 mi NW 9.2 mph - N/A   Mostly Cloudy
1:16 PM 69.8 °F 55.4 °F 60% 29.99 in 10.0 mi NW 10.4 mph - N/A   Scattered Clouds
1:36 PM 71.6 °F 57.2 °F 60% 29.98 in 10.0 mi NNW 9.2 mph - N/A   Scattered Clouds
1:56 PM 71.6 °F 55.4 °F 57% 29.97 in 10.0 mi NW 10.4 mph - N/A   Scattered Clouds
2:16 PM 71.6 °F 55.4 °F 57% 29.98 in 10.0 mi NW 10.4 mph - N/A   Scattered Clouds
2:36 PM 71.6 °F 55.4 °F 57% 29.97 in 10.0 mi NW 8.1 mph - N/A   Scattered Clouds
2:56 PM 71.6 °F 53.6 °F 53% 29.98 in 10.0 mi NW 10.4 mph - N/A   Scattered Clouds
3:17 PM 73.4 °F 51.8 °F 47% 29.98 in 10.0 mi NW 11.5 mph 18.4 mph N/A   Unknown
3:36 PM 71.6 °F 53.6 °F 53% 29.98 in 10.0 mi NNW 8.1 mph - N/A   Unknown
3:56 PM 71.6 °F 51.8 °F 50% 29.98 in 10.0 mi North 5.8 mph 16.1 mph N/A   Scattered Clouds
4:16 PM 73.4 °F 51.8 °F 47% 29.97 in 10.0 mi North 11.5 mph 17.3 mph N/A   Clear
4:36 PM 71.6 °F 51.8 °F 50% 29.97 in 10.0 mi North 10.4 mph - N/A   Clear
4:56 PM 71.6 °F 51.8 °F 50% 29.98 in 10.0 mi NNW 11.5 mph 16.1 mph N/A   Clear
5:16 PM 71.6 °F 51.8 °F 50% 29.98 in 10.0 mi NNW 11.5 mph - N/A   Clear
5:36 PM 71.6 °F 50.0 °F 46% 29.98 in 10.0 mi NNW 10.4 mph - N/A   Clear
5:56 PM 71.6 °F 48.2 °F 43% 29.98 in 10.0 mi NNW 8.1 mph - N/A   Clear
6:16 PM 71.6 °F 50.0 °F 46% 29.98 in 10.0 mi North 8.1 mph - N/A   Clear
6:36 PM 71.6 °F 50.0 °F 46% 29.98 in 10.0 mi North 9.2 mph - N/A   Clear
6:57 PM 69.8 °F 50.0 °F 49% 29.99 in 10.0 mi North 5.8 mph - N/A   Clear
7:16 PM 69.8 °F 48.2 °F 46% 29.99 in 10.0 mi North 5.8 mph - N/A   Clear
7:36 PM 69.8 °F 48.2 °F 46% 29.99 in 10.0 mi North 5.8 mph - N/A   Clear
7:57 PM 68.0 °F 48.2 °F 49% 29.99 in 10.0 mi North 4.6 mph - N/A   Clear
8:16 PM 66.2 °F 51.8 °F 60% 30.00 in 10.0 mi North 3.5 mph - N/A   Clear
8:36 PM 64.4 °F 51.8 °F 64% 30.01 in 10.0 mi Calm Calm - N/A   Clear
8:57 PM 62.6 °F 53.6 °F 72% 30.01 in 10.0 mi Calm Calm - N/A   Clear
9:16 PM 62.6 °F 53.6 °F 72% 30.02 in 10.0 mi Calm Calm - N/A   Clear
9:36 PM 60.8 °F 53.6 °F 77% 30.03 in 10.0 mi Calm Calm - N/A   Clear
9:57 PM 60.8 °F 53.6 °F 77% 30.03 in 10.0 mi Calm Calm - N/A   Clear
10:16 PM 60.8 °F 53.6 °F 77% 30.03 in 10.0 mi Calm Calm - N/A   Clear
10:36 PM 59.0 °F 53.6 °F 82% 30.04 in 10.0 mi Calm Calm - N/A   Clear
10:57 PM 59.0 °F 53.6 °F 82% 30.05 in 10.0 mi Calm Calm - N/A   Clear
11:16 PM 59.0 °F 53.6 °F 82% 30.05 in 10.0 mi Calm Calm - N/A   Clear
11:36 PM 57.2 °F 53.6 °F 88% 30.06 in 10.0 mi Calm Calm - N/A   Clear
11:57 PM 57.2 °F 53.6 °F 88% 30.05 in 10.0 mi Calm Calm - N/A   Clear